To NAV CANADA Home Page Login to a new session Search on AWWS site Disclaimer Vers la page française équivalente Tips FAQ What's new on the site To the Forecasts and Observations / NOTAM section To "File a Flight Plan" website Publications and other links Update of the User's profile FIC Telephone Numbers My Weather Data Folder Route Weather Data Regional Weather Data Local Weather Data To the Forecasts and Observations / NOTAM section
Request Generated 03/19/2019 at 23:06:58 UTC . Weather information available at that time is displayed.

METAR/TAF

If you find any discrepancies between the coded METAR/TAF and the plain language METAR/TAF please use the coded METAR/TAF. LWIS bulletins are not decoded in plain language.

VANCOUVER INTL/BC    (show WxCam)

METAR CYVR 192300Z 30010KT 30SM FEW250 14/05 A3001 RMK CS1 CONTRAILS SLP164=
METAR
LOCATION
CYVR - VANCOUVER INTL/BC
DATE - TIME
19 MARCH 2019 - 2300 UTC
WIND
300 TRUE @ 10  KNOTS
VISIBILITY
30 STAT.  MILES
RUNWAY VISUAL RANGE
WEATHER
CLOUDINESS
FEW CLOUDS (1/8 - 2/8) 25000  FT
TEMP / DEWPOINT
14 C / 5 C
ALTIMETER
30.01 IN HG
RECENT WEATHER
WIND SHEAR

METAR CYVR 192200Z 28009KT 30SM FEW250 15/04 A3003 RMK CS1 CONTRAILS SLP171=
METAR
LOCATION
CYVR - VANCOUVER INTL/BC
DATE - TIME
19 MARCH 2019 - 2200 UTC
WIND
280 TRUE @ 9  KNOTS
VISIBILITY
30 STAT.  MILES
RUNWAY VISUAL RANGE
WEATHER
CLOUDINESS
FEW CLOUDS (1/8 - 2/8) 25000  FT
TEMP / DEWPOINT
15 C / 4 C
ALTIMETER
30.03 IN HG
RECENT WEATHER
WIND SHEAR

METAR CYVR 192100Z 28009KT 30SM FEW250 14/05 A3005 RMK CI1 CI TR SLP178=
METAR
LOCATION
CYVR - VANCOUVER INTL/BC
DATE - TIME
19 MARCH 2019 - 2100 UTC
WIND
280 TRUE @ 9  KNOTS
VISIBILITY
30 STAT.  MILES
RUNWAY VISUAL RANGE
WEATHER
CLOUDINESS
FEW CLOUDS (1/8 - 2/8) 25000  FT
TEMP / DEWPOINT
14 C / 5 C
ALTIMETER
30.05 IN HG
RECENT WEATHER
WIND SHEAR

TAF CYVR 192038Z 1921/2024 30007KT P6SM FEW250 BECMG 2006/2008 06005KT BECMG 2016/2018 28008KT RMK NXT FCST BY 200000Z=
TAF
LOCATION

CYVR - VANCOUVER INTL/BC
VALIDITY [UTC]
19 MAR - 2038 to
21 MAR - 0000
 
TIMES
[UTC]
WIND
[DEGREES TRUE]
VISIBILITY
[STAT. MILES]
WEATHER
CLOUDINESS
[FEET AGL]
 
19 MAR - 2100 to
21 MAR - 0000
300 @ 7 KNOTS
6+
NIL
25000 FEW
BECOMING
20 MAR - 0600 to
20 MAR - 0800
60 @ 5 KNOTS
 
 
 
BECOMING
20 MAR - 1600 to
20 MAR - 1800
280 @ 8 KNOTS
 
 
 
REMARKS
THE NEXT FORECAST WILL BE ISSUED BY 0000 UTC ON DAY 20


Your time UTC time
Weather data provided by Environment Canada and NAV CANADA